sensor_id;sensor_type;location;lat;lon;timestamp;P1;durP1;ratioP1;P2;durP2;ratioP2
3726;SDS011;1879;45.876;12.300;2023-03-20T00:00:41;35.77;;;26.73;;
3726;SDS011;1879;45.876;12.300;2023-03-20T00:03:10;32.03;;;28.80;;
3726;SDS011;1879;45.876;12.300;2023-03-20T00:05:38;32.00;;;28.63;;
3726;SDS011;1879;45.876;12.300;2023-03-20T00:08:05;30.43;;;27.20;;
3726;SDS011;1879;45.876;12.300;2023-03-20T00:10:34;30.00;;;26.77;;
3726;SDS011;1879;45.876;12.300;2023-03-20T00:13:05;29.37;;;26.33;;
3726;SDS011;1879;45.876;12.300;2023-03-20T00:15:37;30.20;;;26.80;;
3726;SDS011;1879;45.876;12.300;2023-03-20T00:18:10;30.73;;;27.30;;
3726;SDS011;1879;45.876;12.300;2023-03-20T00:20:42;29.03;;;26.03;;
3726;SDS011;1879;45.876;12.300;2023-03-20T00:23:09;28.23;;;25.30;;
3726;SDS011;1879;45.876;12.300;2023-03-20T00:25:37;28.30;;;25.40;;
3726;SDS011;1879;45.876;12.300;2023-03-20T00:28:12;29.40;;;26.40;;
3726;SDS011;1879;45.876;12.300;2023-03-20T00:31:05;32.20;;;26.03;;
3726;SDS011;1879;45.876;12.300;2023-03-20T00:33:46;27.20;;;24.33;;
3726;SDS011;1879;45.876;12.300;2023-03-20T00:36:13;27.60;;;24.70;;
3726;SDS011;1879;45.876;12.300;2023-03-20T00:38:40;30.00;;;27.07;;
3726;SDS011;1879;45.876;12.300;2023-03-20T00:41:11;36.90;;;25.70;;
3726;SDS011;1879;45.876;12.300;2023-03-20T00:43:48;28.97;;;25.87;;
3726;SDS011;1879;45.876;12.300;2023-03-20T00:46:18;30.13;;;25.73;;
3726;SDS011;1879;45.876;12.300;2023-03-20T00:48:45;27.60;;;23.60;;
3726;SDS011;1879;45.876;12.300;2023-03-20T00:51:13;27.87;;;24.90;;
3726;SDS011;1879;45.876;12.300;2023-03-20T00:53:40;26.90;;;24.00;;
3726;SDS011;1879;45.876;12.300;2023-03-20T00:56:09;26.30;;;23.47;;
3726;SDS011;1879;45.876;12.300;2023-03-20T00:58:58;26.63;;;23.70;;
3726;SDS011;1879;45.876;12.300;2023-03-20T01:01:27;24.90;;;22.30;;
3726;SDS011;1879;45.876;12.300;2023-03-20T01:03:56;26.27;;;22.47;;
3726;SDS011;1879;45.876;12.300;2023-03-20T01:06:23;27.13;;;23.30;;
3726;SDS011;1879;45.876;12.300;2023-03-20T01:08:50;27.03;;;23.30;;
3726;SDS011;1879;45.876;12.300;2023-03-20T01:11:18;22.57;;;20.17;;
3726;SDS011;1879;45.876;12.300;2023-03-20T01:13:48;24.30;;;21.80;;
3726;SDS011;1879;45.876;12.300;2023-03-20T01:16:18;23.83;;;20.97;;
3726;SDS011;1879;45.876;12.300;2023-03-20T01:18:47;23.73;;;21.33;;
3726;SDS011;1879;45.876;12.300;2023-03-20T01:21:14;24.93;;;22.27;;
3726;SDS011;1879;45.876;12.300;2023-03-20T01:23:42;23.57;;;20.80;;
3726;SDS011;1879;45.876;12.300;2023-03-20T01:26:21;22.47;;;20.37;;
3726;SDS011;1879;45.876;12.300;2023-03-20T01:28:54;23.10;;;20.60;;
3726;SDS011;1879;45.876;12.300;2023-03-20T01:31:22;23.80;;;21.20;;
3726;SDS011;1879;45.876;12.300;2023-03-20T01:33:49;22.10;;;20.03;;
3726;SDS011;1879;45.876;12.300;2023-03-20T01:36:17;23.20;;;19.87;;
3726;SDS011;1879;45.876;12.300;2023-03-20T01:38:47;20.87;;;18.70;;
3726;SDS011;1879;45.876;12.300;2023-03-20T01:41:20;23.03;;;20.67;;
3726;SDS011;1879;45.876;12.300;2023-03-20T01:43:49;23.70;;;21.30;;
3726;SDS011;1879;45.876;12.300;2023-03-20T01:46:17;24.87;;;21.30;;
3726;SDS011;1879;45.876;12.300;2023-03-20T01:49:00;22.20;;;20.20;;
3726;SDS011;1879;45.876;12.300;2023-03-20T01:51:33;23.00;;;20.67;;
3726;SDS011;1879;45.876;12.300;2023-03-20T01:54:02;23.23;;;20.93;;
3726;SDS011;1879;45.876;12.300;2023-03-20T01:56:34;25.67;;;21.30;;
3726;SDS011;1879;45.876;12.300;2023-03-20T01:59:05;23.30;;;21.07;;
3726;SDS011;1879;45.876;12.300;2023-03-20T02:01:37;23.70;;;21.20;;
3726;SDS011;1879;45.876;12.300;2023-03-20T02:04:07;22.80;;;20.50;;
3726;SDS011;1879;45.876;12.300;2023-03-20T02:06:34;25.03;;;22.30;;
3726;SDS011;1879;45.876;12.300;2023-03-20T02:09:04;22.80;;;18.57;;
3726;SDS011;1879;45.876;12.300;2023-03-20T02:11:31;24.83;;;20.97;;
3726;SDS011;1879;45.876;12.300;2023-03-20T02:13:59;23.87;;;21.30;;
3726;SDS011;1879;45.876;12.300;2023-03-20T02:16:26;27.60;;;22.53;;
3726;SDS011;1879;45.876;12.300;2023-03-20T02:18:54;23.77;;;21.07;;
3726;SDS011;1879;45.876;12.300;2023-03-20T02:27:22;24.23;;;19.60;;
3726;SDS011;1879;45.876;12.300;2023-03-20T02:30:10;23.23;;;20.67;;
3726;SDS011;1879;45.876;12.300;2023-03-20T02:33:07;21.73;;;19.57;;
3726;SDS011;1879;45.876;12.300;2023-03-20T02:36:03;23.83;;;21.33;;
3726;SDS011;1879;45.876;12.300;2023-03-20T02:39:08;23.17;;;20.83;;
3726;SDS011;1879;45.876;12.300;2023-03-20T02:41:50;23.60;;;20.93;;
3726;SDS011;1879;45.876;12.300;2023-03-20T02:44:24;22.77;;;20.40;;
3726;SDS011;1879;45.876;12.300;2023-03-20T02:46:59;23.93;;;21.53;;
3726;SDS011;1879;45.876;12.300;2023-03-20T02:49:42;23.87;;;21.27;;
3726;SDS011;1879;45.876;12.300;2023-03-20T02:52:18;26.73;;;20.97;;
3726;SDS011;1879;45.876;12.300;2023-03-20T02:54:55;24.03;;;21.47;;
3726;SDS011;1879;45.876;12.300;2023-03-20T02:57:30;22.47;;;20.23;;
3726;SDS011;1879;45.876;12.300;2023-03-20T03:00:07;25.77;;;21.87;;
3726;SDS011;1879;45.876;12.300;2023-03-20T03:02:39;23.77;;;21.27;;
3726;SDS011;1879;45.876;12.300;2023-03-20T03:05:13;23.03;;;20.63;;
3726;SDS011;1879;45.876;12.300;2023-03-20T03:07:43;22.90;;;20.50;;
3726;SDS011;1879;45.876;12.300;2023-03-20T03:10:16;24.33;;;21.70;;
3726;SDS011;1879;45.876;12.300;2023-03-20T03:12:47;22.73;;;20.30;;
3726;SDS011;1879;45.876;12.300;2023-03-20T03:15:18;21.63;;;18.50;;
3726;SDS011;1879;45.876;12.300;2023-03-20T03:17:51;21.00;;;18.73;;
3726;SDS011;1879;45.876;12.300;2023-03-20T03:20:19;21.63;;;19.50;;
3726;SDS011;1879;45.876;12.300;2023-03-20T03:22:48;23.83;;;21.43;;
3726;SDS011;1879;45.876;12.300;2023-03-20T03:25:17;23.43;;;20.60;;
3726;SDS011;1879;45.876;12.300;2023-03-20T03:27:48;22.87;;;20.47;;
3726;SDS011;1879;45.876;12.300;2023-03-20T03:30:27;21.93;;;19.83;;
3726;SDS011;1879;45.876;12.300;2023-03-20T03:33:02;24.97;;;22.47;;
3726;SDS011;1879;45.876;12.300;2023-03-20T03:35:37;24.37;;;21.80;;
3726;SDS011;1879;45.876;12.300;2023-03-20T03:38:08;24.53;;;22.00;;
3726;SDS011;1879;45.876;12.300;2023-03-20T03:40:45;24.23;;;21.50;;
3726;SDS011;1879;45.876;12.300;2023-03-20T03:43:19;24.77;;;22.17;;
3726;SDS011;1879;45.876;12.300;2023-03-20T03:45:54;24.27;;;21.80;;
3726;SDS011;1879;45.876;12.300;2023-03-20T03:48:26;25.13;;;22.43;;
3726;SDS011;1879;45.876;12.300;2023-03-20T03:50:58;26.30;;;22.70;;
3726;SDS011;1879;45.876;12.300;2023-03-20T03:53:29;26.37;;;22.20;;
3726;SDS011;1879;45.876;12.300;2023-03-20T03:56:02;24.40;;;21.80;;
3726;SDS011;1879;45.876;12.300;2023-03-20T03:58:34;22.67;;;20.30;;
3726;SDS011;1879;45.876;12.300;2023-03-20T04:01:05;23.73;;;20.73;;
3726;SDS011;1879;45.876;12.300;2023-03-20T04:03:36;25.40;;;22.50;;
3726;SDS011;1879;45.876;12.300;2023-03-20T04:06:05;22.53;;;20.43;;
3726;SDS011;1879;45.876;12.300;2023-03-20T04:08:35;23.30;;;20.77;;
3726;SDS011;1879;45.876;12.300;2023-03-20T04:11:06;24.03;;;20.67;;
3726;SDS011;1879;45.876;12.300;2023-03-20T04:13:38;23.47;;;20.60;;
3726;SDS011;1879;45.876;12.300;2023-03-20T04:16:06;24.60;;;21.37;;
3726;SDS011;1879;45.876;12.300;2023-03-20T04:18:36;23.50;;;21.03;;
3726;SDS011;1879;45.876;12.300;2023-03-20T04:21:04;23.70;;;20.23;;
3726;SDS011;1879;45.876;12.300;2023-03-20T04:23:34;22.93;;;20.53;;
3726;SDS011;1879;45.876;12.300;2023-03-20T04:26:02;22.03;;;19.57;;
3726;SDS011;1879;45.876;12.300;2023-03-20T04:28:31;23.17;;;20.67;;
3726;SDS011;1879;45.876;12.300;2023-03-20T04:30:59;22.03;;;19.63;;
3726;SDS011;1879;45.876;12.300;2023-03-20T04:33:27;21.83;;;19.53;;
3726;SDS011;1879;45.876;12.300;2023-03-20T04:35:54;23.07;;;20.67;;
3726;SDS011;1879;45.876;12.300;2023-03-20T04:38:22;22.67;;;19.70;;
3726;SDS011;1879;45.876;12.300;2023-03-20T04:40:55;21.63;;;19.43;;
3726;SDS011;1879;45.876;12.300;2023-03-20T04:43:22;22.03;;;19.73;;
3726;SDS011;1879;45.876;12.300;2023-03-20T04:45:51;23.53;;;19.80;;
3726;SDS011;1879;45.876;12.300;2023-03-20T04:48:20;22.90;;;19.57;;
3726;SDS011;1879;45.876;12.300;2023-03-20T04:50:47;21.23;;;19.03;;
3726;SDS011;1879;45.876;12.300;2023-03-20T04:53:15;22.40;;;19.87;;
3726;SDS011;1879;45.876;12.300;2023-03-20T04:55:44;22.03;;;18.03;;
3726;SDS011;1879;45.876;12.300;2023-03-20T04:58:12;22.50;;;20.10;;
3726;SDS011;1879;45.876;12.300;2023-03-20T05:00:39;22.50;;;20.10;;
3726;SDS011;1879;45.876;12.300;2023-03-20T05:03:08;22.50;;;20.00;;
3726;SDS011;1879;45.876;12.300;2023-03-20T05:05:35;23.67;;;21.10;;
3726;SDS011;1879;45.876;12.300;2023-03-20T05:08:05;22.97;;;18.93;;
3726;SDS011;1879;45.876;12.300;2023-03-20T05:10:35;22.70;;;18.97;;
3726;SDS011;1879;45.876;12.300;2023-03-20T05:13:05;23.77;;;20.60;;
3726;SDS011;1879;45.876;12.300;2023-03-20T05:15:32;26.80;;;24.07;;
3726;SDS011;1879;45.876;12.300;2023-03-20T05:17:59;26.17;;;23.43;;
3726;SDS011;1879;45.876;12.300;2023-03-20T05:20:27;25.20;;;22.70;;
3726;SDS011;1879;45.876;12.300;2023-03-20T05:23:00;25.07;;;21.80;;
3726;SDS011;1879;45.876;12.300;2023-03-20T05:25:31;27.20;;;21.70;;
3726;SDS011;1879;45.876;12.300;2023-03-20T05:27:58;26.10;;;22.27;;
3726;SDS011;1879;45.876;12.300;2023-03-20T05:30:25;23.87;;;21.00;;
3726;SDS011;1879;45.876;12.300;2023-03-20T05:32:53;23.67;;;21.07;;
3726;SDS011;1879;45.876;12.300;2023-03-20T05:35:20;25.70;;;22.90;;
3726;SDS011;1879;45.876;12.300;2023-03-20T05:37:48;23.83;;;21.23;;
3726;SDS011;1879;45.876;12.300;2023-03-20T05:40:17;24.77;;;20.57;;
3726;SDS011;1879;45.876;12.300;2023-03-20T05:42:48;23.73;;;21.00;;
3726;SDS011;1879;45.876;12.300;2023-03-20T05:45:19;24.77;;;22.27;;
3726;SDS011;1879;45.876;12.300;2023-03-20T05:47:46;26.10;;;20.97;;
3726;SDS011;1879;45.876;12.300;2023-03-20T05:50:13;26.27;;;20.70;;
3726;SDS011;1879;45.876;12.300;2023-03-20T05:52:40;31.37;;;21.80;;
3726;SDS011;1879;45.876;12.300;2023-03-20T05:55:12;24.63;;;19.67;;
3726;SDS011;1879;45.876;12.300;2023-03-20T05:57:40;22.53;;;20.23;;
3726;SDS011;1879;45.876;12.300;2023-03-20T06:00:07;19.67;;;17.57;;
3726;SDS011;1879;45.876;12.300;2023-03-20T06:02:35;26.00;;;21.53;;
3726;SDS011;1879;45.876;12.300;2023-03-20T06:05:03;24.00;;;21.60;;
3726;SDS011;1879;45.876;12.300;2023-03-20T06:07:30;24.30;;;21.50;;
3726;SDS011;1879;45.876;12.300;2023-03-20T06:09:57;23.20;;;20.80;;
3726;SDS011;1879;45.876;12.300;2023-03-20T06:12:25;23.77;;;21.07;;
3726;SDS011;1879;45.876;12.300;2023-03-20T06:14:56;23.63;;;20.83;;
3726;SDS011;1879;45.876;12.300;2023-03-20T06:17:24;24.90;;;21.30;;
3726;SDS011;1879;45.876;12.300;2023-03-20T06:19:51;24.90;;;22.27;;
3726;SDS011;1879;45.876;12.300;2023-03-20T06:22:18;25.33;;;22.63;;
3726;SDS011;1879;45.876;12.300;2023-03-20T06:24:45;28.37;;;24.77;;
3726;SDS011;1879;45.876;12.300;2023-03-20T06:27:13;29.00;;;25.47;;
3726;SDS011;1879;45.876;12.300;2023-03-20T06:29:41;27.50;;;23.27;;
3726;SDS011;1879;45.876;12.300;2023-03-20T06:32:08;28.50;;;24.73;;
3726;SDS011;1879;45.876;12.300;2023-03-20T06:34:36;27.13;;;24.37;;
3726;SDS011;1879;45.876;12.300;2023-03-20T06:37:03;31.23;;;24.80;;
3726;SDS011;1879;45.876;12.300;2023-03-20T06:39:30;31.13;;;26.40;;
3726;SDS011;1879;45.876;12.300;2023-03-20T06:41:58;27.03;;;22.23;;
3726;SDS011;1879;45.876;12.300;2023-03-20T06:44:25;31.27;;;25.17;;
3726;SDS011;1879;45.876;12.300;2023-03-20T06:46:53;27.00;;;24.03;;
3726;SDS011;1879;45.876;12.300;2023-03-20T06:49:20;25.80;;;22.40;;
3726;SDS011;1879;45.876;12.300;2023-03-20T06:51:47;28.67;;;23.73;;
3726;SDS011;1879;45.876;12.300;2023-03-20T06:54:15;29.97;;;24.20;;
3726;SDS011;1879;45.876;12.300;2023-03-20T06:56:47;28.70;;;22.33;;
3726;SDS011;1879;45.876;12.300;2023-03-20T06:59:15;25.50;;;22.70;;
3726;SDS011;1879;45.876;12.300;2023-03-20T07:01:42;28.67;;;24.00;;
3726;SDS011;1879;45.876;12.300;2023-03-20T07:04:15;29.13;;;25.00;;
3726;SDS011;1879;45.876;12.300;2023-03-20T07:06:43;27.47;;;23.07;;
3726;SDS011;1879;45.876;12.300;2023-03-20T07:09:09;29.43;;;23.67;;
3726;SDS011;1879;45.876;12.300;2023-03-20T07:11:36;32.90;;;25.00;;
3726;SDS011;1879;45.876;12.300;2023-03-20T07:14:03;31.10;;;26.53;;
3726;SDS011;1879;45.876;12.300;2023-03-20T07:16:30;31.03;;;26.90;;
3726;SDS011;1879;45.876;12.300;2023-03-20T07:19:01;27.13;;;24.23;;
3726;SDS011;1879;45.876;12.300;2023-03-20T07:21:29;26.50;;;23.23;;
3726;SDS011;1879;45.876;12.300;2023-03-20T07:23:57;25.30;;;22.20;;
3726;SDS011;1879;45.876;12.300;2023-03-20T07:26:30;29.97;;;24.33;;
3726;SDS011;1879;45.876;12.300;2023-03-20T07:28:57;26.07;;;23.10;;
3726;SDS011;1879;45.876;12.300;2023-03-20T07:31:25;26.87;;;24.07;;
3726;SDS011;1879;45.876;12.300;2023-03-20T07:33:55;29.00;;;22.57;;
3726;SDS011;1879;45.876;12.300;2023-03-20T07:36:22;25.70;;;22.60;;
3726;SDS011;1879;45.876;12.300;2023-03-20T07:38:53;23.90;;;21.33;;
3726;SDS011;1879;45.876;12.300;2023-03-20T07:41:23;27.50;;;23.70;;
3726;SDS011;1879;45.876;12.300;2023-03-20T07:43:56;32.03;;;24.40;;
3726;SDS011;1879;45.876;12.300;2023-03-20T07:46:23;27.40;;;24.50;;
3726;SDS011;1879;45.876;12.300;2023-03-20T07:48:50;27.87;;;23.87;;
3726;SDS011;1879;45.876;12.300;2023-03-20T07:51:17;28.50;;;23.67;;
3726;SDS011;1879;45.876;12.300;2023-03-20T07:53:56;29.73;;;26.33;;
3726;SDS011;1879;45.876;12.300;2023-03-20T07:56:23;30.67;;;26.33;;
3726;SDS011;1879;45.876;12.300;2023-03-20T07:58:50;31.60;;;27.97;;
3726;SDS011;1879;45.876;12.300;2023-03-20T08:01:17;32.97;;;28.37;;
3726;SDS011;1879;45.876;12.300;2023-03-20T08:03:44;35.13;;;27.97;;
3726;SDS011;1879;45.876;12.300;2023-03-20T08:06:11;34.07;;;29.10;;
3726;SDS011;1879;45.876;12.300;2023-03-20T08:12:06;27.93;;;25.07;;
3726;SDS011;1879;45.876;12.300;2023-03-20T08:14:47;28.60;;;24.87;;
3726;SDS011;1879;45.876;12.300;2023-03-20T08:17:14;29.40;;;25.23;;
3726;SDS011;1879;45.876;12.300;2023-03-20T08:19:48;29.90;;;26.80;;
3726;SDS011;1879;45.876;12.300;2023-03-20T08:22:18;28.30;;;24.43;;
3726;SDS011;1879;45.876;12.300;2023-03-20T08:24:51;30.00;;;23.30;;
3726;SDS011;1879;45.876;12.300;2023-03-20T08:27:18;27.90;;;24.20;;
3726;SDS011;1879;45.876;12.300;2023-03-20T08:29:48;29.93;;;24.67;;
3726;SDS011;1879;45.876;12.300;2023-03-20T08:32:15;27.03;;;24.10;;
3726;SDS011;1879;45.876;12.300;2023-03-20T08:34:43;27.47;;;24.67;;
3726;SDS011;1879;45.876;12.300;2023-03-20T08:37:10;28.13;;;23.43;;
3726;SDS011;1879;45.876;12.300;2023-03-20T08:39:38;25.93;;;23.30;;
3726;SDS011;1879;45.876;12.300;2023-03-20T08:42:06;27.17;;;22.73;;
3726;SDS011;1879;45.876;12.300;2023-03-20T08:44:34;27.60;;;24.60;;
3726;SDS011;1879;45.876;12.300;2023-03-20T08:47:04;27.40;;;24.40;;
3726;SDS011;1879;45.876;12.300;2023-03-20T08:49:32;27.17;;;23.60;;
3726;SDS011;1879;45.876;12.300;2023-03-20T08:54:52;25.50;;;22.43;;
3726;SDS011;1879;45.876;12.300;2023-03-20T09:00:13;25.97;;;22.07;;
3726;SDS011;1879;45.876;12.300;2023-03-20T09:02:42;24.07;;;21.50;;
3726;SDS011;1879;45.876;12.300;2023-03-20T09:05:09;23.87;;;21.30;;
3726;SDS011;1879;45.876;12.300;2023-03-20T09:07:40;23.70;;;20.97;;
3726;SDS011;1879;45.876;12.300;2023-03-20T09:10:08;24.87;;;22.27;;
3726;SDS011;1879;45.876;12.300;2023-03-20T09:12:37;26.50;;;22.80;;
3726;SDS011;1879;45.876;12.300;2023-03-20T09:15:05;22.40;;;20.20;;
3726;SDS011;1879;45.876;12.300;2023-03-20T09:17:33;20.90;;;18.70;;
3726;SDS011;1879;45.876;12.300;2023-03-20T09:20:00;21.63;;;18.10;;
3726;SDS011;1879;45.876;12.300;2023-03-20T09:22:28;22.67;;;19.00;;
3726;SDS011;1879;45.876;12.300;2023-03-20T09:24:55;22.07;;;18.17;;
3726;SDS011;1879;45.876;12.300;2023-03-20T09:27:28;18.93;;;17.03;;
3726;SDS011;1879;45.876;12.300;2023-03-20T09:29:58;18.87;;;16.87;;
3726;SDS011;1879;45.876;12.300;2023-03-20T09:32:27;20.60;;;18.60;;
3726;SDS011;1879;45.876;12.300;2023-03-20T09:35:02;19.93;;;17.83;;
3726;SDS011;1879;45.876;12.300;2023-03-20T09:37:30;17.73;;;15.90;;
3726;SDS011;1879;45.876;12.300;2023-03-20T09:39:57;16.67;;;15.07;;
3726;SDS011;1879;45.876;12.300;2023-03-20T09:42:28;17.90;;;14.30;;
3726;SDS011;1879;45.876;12.300;2023-03-20T09:45:06;15.50;;;13.97;;
3726;SDS011;1879;45.876;12.300;2023-03-20T09:47:54;14.53;;;13.03;;
3726;SDS011;1879;45.876;12.300;2023-03-20T09:50:27;19.30;;;17.20;;
3726;SDS011;1879;45.876;12.300;2023-03-20T09:53:12;18.30;;;16.60;;
3726;SDS011;1879;45.876;12.300;2023-03-20T09:55:46;18.03;;;16.13;;
3726;SDS011;1879;45.876;12.300;2023-03-20T09:58:18;19.20;;;17.30;;
3726;SDS011;1879;45.876;12.300;2023-03-20T10:00:51;16.20;;;14.40;;
3726;SDS011;1879;45.876;12.300;2023-03-20T10:03:23;16.50;;;14.80;;
3726;SDS011;1879;45.876;12.300;2023-03-20T10:05:58;15.77;;;14.17;;
3726;SDS011;1879;45.876;12.300;2023-03-20T10:08:28;14.87;;;13.47;;
3726;SDS011;1879;45.876;12.300;2023-03-20T10:11:01;16.30;;;14.27;;
3726;SDS011;1879;45.876;12.300;2023-03-20T10:13:52;15.23;;;13.40;;
3726;SDS011;1879;45.876;12.300;2023-03-20T10:16:40;15.63;;;14.00;;
3726;SDS011;1879;45.876;12.300;2023-03-20T10:19:22;17.17;;;15.10;;
3726;SDS011;1879;45.876;12.300;2023-03-20T10:21:56;15.23;;;13.73;;
3726;SDS011;1879;45.876;12.300;2023-03-20T10:24:28;16.77;;;15.00;;
3726;SDS011;1879;45.876;12.300;2023-03-20T10:27:00;15.07;;;13.47;;
3726;SDS011;1879;45.876;12.300;2023-03-20T10:32:28;13.87;;;12.47;;
3726;SDS011;1879;45.876;12.300;2023-03-20T10:35:14;12.10;;;10.97;;
3726;SDS011;1879;45.876;12.300;2023-03-20T10:37:53;12.47;;;11.27;;
3726;SDS011;1879;45.876;12.300;2023-03-20T10:40:36;10.67;;;9.67;;
3726;SDS011;1879;45.876;12.300;2023-03-20T10:43:08;12.67;;;11.40;;
3726;SDS011;1879;45.876;12.300;2023-03-20T10:45:42;14.80;;;13.40;;
3726;SDS011;1879;45.876;12.300;2023-03-20T10:48:21;15.57;;;13.57;;
3726;SDS011;1879;45.876;12.300;2023-03-20T10:50:52;15.57;;;13.90;;
3726;SDS011;1879;45.876;12.300;2023-03-20T10:53:27;14.47;;;13.03;;
3726;SDS011;1879;45.876;12.300;2023-03-20T10:56:04;14.27;;;12.97;;
3726;SDS011;1879;45.876;12.300;2023-03-20T10:58:34;14.10;;;12.73;;
3726;SDS011;1879;45.876;12.300;2023-03-20T11:01:04;15.10;;;13.60;;
3726;SDS011;1879;45.876;12.300;2023-03-20T11:03:33;14.70;;;13.20;;
3726;SDS011;1879;45.876;12.300;2023-03-20T11:06:04;16.17;;;14.50;;
3726;SDS011;1879;45.876;12.300;2023-03-20T11:08:40;14.53;;;13.03;;
3726;SDS011;1879;45.876;12.300;2023-03-20T11:11:11;13.60;;;12.30;;
3726;SDS011;1879;45.876;12.300;2023-03-20T11:13:38;13.40;;;11.97;;
3726;SDS011;1879;45.876;12.300;2023-03-20T11:16:09;12.07;;;10.83;;
3726;SDS011;1879;45.876;12.300;2023-03-20T11:18:43;13.23;;;10.53;;
3726;SDS011;1879;45.876;12.300;2023-03-20T11:21:14;15.10;;;13.63;;
3726;SDS011;1879;45.876;12.300;2023-03-20T11:23:45;15.80;;;14.23;;
3726;SDS011;1879;45.876;12.300;2023-03-20T11:26:13;14.60;;;13.20;;
3726;SDS011;1879;45.876;12.300;2023-03-20T11:28:49;16.33;;;14.27;;
3726;SDS011;1879;45.876;12.300;2023-03-20T11:31:20;15.10;;;13.70;;
3726;SDS011;1879;45.876;12.300;2023-03-20T11:34:08;15.03;;;13.70;;
3726;SDS011;1879;45.876;12.300;2023-03-20T11:36:46;15.77;;;14.17;;
3726;SDS011;1879;45.876;12.300;2023-03-20T11:39:21;14.67;;;13.17;;
3726;SDS011;1879;45.876;12.300;2023-03-20T11:41:50;13.83;;;11.70;;
3726;SDS011;1879;45.876;12.300;2023-03-20T11:44:19;14.90;;;13.40;;
3726;SDS011;1879;45.876;12.300;2023-03-20T11:46:53;16.30;;;14.80;;
3726;SDS011;1879;45.876;12.300;2023-03-20T11:49:23;13.37;;;12.07;;
3726;SDS011;1879;45.876;12.300;2023-03-20T11:51:53;14.37;;;13.07;;
3726;SDS011;1879;45.876;12.300;2023-03-20T11:54:28;12.27;;;10.97;;
3726;SDS011;1879;45.876;12.300;2023-03-20T11:56:56;11.80;;;10.53;;
3726;SDS011;1879;45.876;12.300;2023-03-20T11:59:25;16.73;;;12.23;;
3726;SDS011;1879;45.876;12.300;2023-03-20T12:01:56;11.93;;;10.93;;
3726;SDS011;1879;45.876;12.300;2023-03-20T12:04:28;11.67;;;10.50;;
3726;SDS011;1879;45.876;12.300;2023-03-20T12:06:59;13.83;;;12.43;;
3726;SDS011;1879;45.876;12.300;2023-03-20T12:09:34;12.97;;;11.70;;
3726;SDS011;1879;45.876;12.300;2023-03-20T12:12:05;13.10;;;11.90;;
3726;SDS011;1879;45.876;12.300;2023-03-20T12:14:41;12.77;;;11.57;;
3726;SDS011;1879;45.876;12.300;2023-03-20T12:17:25;12.63;;;11.53;;
3726;SDS011;1879;45.876;12.300;2023-03-20T12:20:04;16.00;;;14.50;;
3726;SDS011;1879;45.876;12.300;2023-03-20T12:22:41;12.93;;;11.63;;
3726;SDS011;1879;45.876;12.300;2023-03-20T12:25:16;13.83;;;12.50;;
3726;SDS011;1879;45.876;12.300;2023-03-20T12:27:48;15.63;;;14.13;;
3726;SDS011;1879;45.876;12.300;2023-03-20T12:30:22;15.30;;;14.00;;
3726;SDS011;1879;45.876;12.300;2023-03-20T12:32:58;16.07;;;14.47;;
3726;SDS011;1879;45.876;12.300;2023-03-20T12:35:58;14.97;;;13.47;;
3726;SDS011;1879;45.876;12.300;2023-03-20T12:38:27;14.53;;;13.13;;
3726;SDS011;1879;45.876;12.300;2023-03-20T12:41:08;16.00;;;14.40;;
3726;SDS011;1879;45.876;12.300;2023-03-20T12:43:43;14.67;;;13.37;;
3726;SDS011;1879;45.876;12.300;2023-03-20T12:46:29;15.67;;;14.10;;
3726;SDS011;1879;45.876;12.300;2023-03-20T12:49:04;15.50;;;14.10;;
3726;SDS011;1879;45.876;12.300;2023-03-20T12:51:41;16.80;;;15.10;;
3726;SDS011;1879;45.876;12.300;2023-03-20T12:54:23;16.90;;;15.37;;
3726;SDS011;1879;45.876;12.300;2023-03-20T12:57:05;15.13;;;13.63;;
3726;SDS011;1879;45.876;12.300;2023-03-20T12:59:49;14.97;;;13.57;;
3726;SDS011;1879;45.876;12.300;2023-03-20T13:02:32;17.23;;;15.63;;
3726;SDS011;1879;45.876;12.300;2023-03-20T13:05:09;17.93;;;16.30;;
3726;SDS011;1879;45.876;12.300;2023-03-20T13:07:54;16.77;;;14.43;;
3726;SDS011;1879;45.876;12.300;2023-03-20T13:10:28;15.57;;;14.17;;
3726;SDS011;1879;45.876;12.300;2023-03-20T13:13:02;14.70;;;13.40;;
3726;SDS011;1879;45.876;12.300;2023-03-20T13:15:45;14.80;;;13.43;;
3726;SDS011;1879;45.876;12.300;2023-03-20T13:18:24;14.73;;;13.30;;
3726;SDS011;1879;45.876;12.300;2023-03-20T13:21:01;14.73;;;13.50;;
3726;SDS011;1879;45.876;12.300;2023-03-20T13:23:36;12.93;;;11.77;;
3726;SDS011;1879;45.876;12.300;2023-03-20T13:26:14;14.13;;;12.93;;
3726;SDS011;1879;45.876;12.300;2023-03-20T13:28:54;15.20;;;13.90;;
3726;SDS011;1879;45.876;12.300;2023-03-20T13:31:33;14.70;;;13.30;;
3726;SDS011;1879;45.876;12.300;2023-03-20T13:34:09;17.07;;;15.47;;
3726;SDS011;1879;45.876;12.300;2023-03-20T13:36:49;17.50;;;15.60;;
3726;SDS011;1879;45.876;12.300;2023-03-20T13:39:26;17.13;;;15.63;;
3726;SDS011;1879;45.876;12.300;2023-03-20T13:41:58;18.23;;;16.57;;
3726;SDS011;1879;45.876;12.300;2023-03-20T13:44:26;18.83;;;16.93;;
3726;SDS011;1879;45.876;12.300;2023-03-20T13:46:56;17.63;;;16.00;;
3726;SDS011;1879;45.876;12.300;2023-03-20T13:49:28;18.23;;;15.97;;
3726;SDS011;1879;45.876;12.300;2023-03-20T13:52:02;20.00;;;18.00;;
3726;SDS011;1879;45.876;12.300;2023-03-20T13:54:40;19.17;;;16.80;;
3726;SDS011;1879;45.876;12.300;2023-03-20T13:57:22;19.07;;;17.37;;
3726;SDS011;1879;45.876;12.300;2023-03-20T14:00:03;19.10;;;17.00;;
3726;SDS011;1879;45.876;12.300;2023-03-20T14:02:40;19.87;;;17.87;;
3726;SDS011;1879;45.876;12.300;2023-03-20T14:05:18;18.70;;;16.80;;
3726;SDS011;1879;45.876;12.300;2023-03-20T14:07:47;19.60;;;17.00;;
3726;SDS011;1879;45.876;12.300;2023-03-20T14:10:34;19.63;;;17.53;;
3726;SDS011;1879;45.876;12.300;2023-03-20T14:13:03;22.00;;;17.43;;
3726;SDS011;1879;45.876;12.300;2023-03-20T14:15:42;18.57;;;16.77;;
3726;SDS011;1879;45.876;12.300;2023-03-20T14:18:14;18.43;;;16.53;;
3726;SDS011;1879;45.876;12.300;2023-03-20T14:20:43;20.17;;;18.27;;
3726;SDS011;1879;45.876;12.300;2023-03-20T14:23:19;19.07;;;17.17;;
3726;SDS011;1879;45.876;12.300;2023-03-20T14:25:59;20.23;;;18.23;;
3726;SDS011;1879;45.876;12.300;2023-03-20T14:28:30;19.10;;;17.40;;
3726;SDS011;1879;45.876;12.300;2023-03-20T14:31:11;19.80;;;17.80;;
3726;SDS011;1879;45.876;12.300;2023-03-20T14:33:48;20.27;;;18.30;;
3726;SDS011;1879;45.876;12.300;2023-03-20T14:36:20;21.63;;;19.53;;
3726;SDS011;1879;45.876;12.300;2023-03-20T14:38:52;20.77;;;18.60;;
3726;SDS011;1879;45.876;12.300;2023-03-20T14:41:27;20.00;;;18.10;;
3726;SDS011;1879;45.876;12.300;2023-03-20T14:44:05;21.30;;;19.00;;
3726;SDS011;1879;45.876;12.300;2023-03-20T14:46:47;20.80;;;18.63;;
3726;SDS011;1879;45.876;12.300;2023-03-20T14:49:22;21.90;;;19.70;;
3726;SDS011;1879;45.876;12.300;2023-03-20T14:51:59;21.10;;;19.00;;
3726;SDS011;1879;45.876;12.300;2023-03-20T14:54:35;18.93;;;17.10;;
3726;SDS011;1879;45.876;12.300;2023-03-20T14:57:15;22.57;;;20.17;;
3726;SDS011;1879;45.876;12.300;2023-03-20T14:59:57;21.17;;;19.00;;
3726;SDS011;1879;45.876;12.300;2023-03-20T15:02:25;22.43;;;18.93;;
3726;SDS011;1879;45.876;12.300;2023-03-20T15:04:53;20.73;;;18.70;;
3726;SDS011;1879;45.876;12.300;2023-03-20T15:07:22;19.53;;;17.77;;
3726;SDS011;1879;45.876;12.300;2023-03-20T15:09:52;22.03;;;19.73;;
3726;SDS011;1879;45.876;12.300;2023-03-20T15:12:25;22.93;;;20.63;;
3726;SDS011;1879;45.876;12.300;2023-03-20T15:14:54;23.47;;;21.17;;
3726;SDS011;1879;45.876;12.300;2023-03-20T15:17:24;23.10;;;20.60;;
3726;SDS011;1879;45.876;12.300;2023-03-20T15:19:58;24.63;;;22.30;;